createdAt,value
2023-03-26T00:01:46.532Z,1.67
2023-03-26T00:03:53.759Z,1.10
2023-03-26T00:06:04.459Z,1.90
2023-03-26T00:08:08.953Z,2.10
2023-03-26T00:10:12.948Z,1.73
2023-03-26T00:12:16.615Z,1.52
2023-03-26T00:14:20.144Z,1.50
2023-03-26T00:16:23.757Z,1.38
2023-03-26T00:18:30.821Z,1.55
2023-03-26T00:20:34.378Z,1.23
2023-03-26T00:22:37.919Z,2.25
2023-03-26T00:24:46.041Z,1.40
2023-03-26T00:26:53.633Z,1.63
2023-03-26T00:28:57.844Z,1.42
2023-03-26T00:31:02.875Z,1.65
2023-03-26T00:33:07.965Z,1.45
2023-03-26T00:35:13.176Z,1.40
2023-03-26T00:37:16.716Z,1.95
2023-03-26T00:39:21.759Z,2.13
2023-03-26T00:41:27.133Z,1.60
2023-03-26T00:43:33.244Z,2.00
2023-03-26T00:45:36.850Z,1.88
2023-03-26T00:47:41.294Z,1.65
2023-03-26T00:49:47.014Z,1.67
2023-03-26T00:51:55.138Z,1.50
2023-03-26T00:54:01.647Z,1.80
2023-03-26T00:56:05.476Z,1.90
2023-03-26T00:58:10.408Z,1.55
2023-03-26T01:00:15.755Z,1.80
2023-03-26T01:02:21.305Z,1.70
2023-03-26T01:04:31.279Z,1.10
2023-03-26T01:06:36.426Z,1.63
2023-03-26T01:08:43.350Z,1.73
2023-03-26T01:10:50.979Z,1.63
2023-03-26T01:12:54.835Z,1.10
2023-03-26T01:15:04.374Z,1.50
2023-03-26T01:17:09.257Z,1.63
2023-03-26T01:19:16.641Z,1.20
2023-03-26T01:21:22.699Z,1.63
2023-03-26T01:23:32.788Z,1.85
2023-03-26T01:25:39.707Z,1.98
2023-03-26T01:27:45.531Z,1.60
2023-03-26T01:29:54.540Z,1.88
2023-03-26T01:31:59.835Z,1.40
2023-03-26T01:34:05.863Z,1.55
2023-03-26T01:36:12.640Z,1.20
2023-03-26T01:38:24.080Z,1.55
2023-03-26T01:40:38.658Z,1.70
2023-03-26T01:42:46.330Z,1.25
2023-03-26T01:44:52.623Z,2.45
2023-03-26T01:46:56.675Z,2.40
2023-03-26T01:49:00.702Z,2.30
2023-03-26T01:51:04.235Z,2.15
2023-03-26T01:53:08.131Z,1.80
2023-03-26T01:55:12.771Z,2.08
2023-03-26T01:57:20.371Z,2.17
2023-03-26T01:59:31.321Z,2.00
2023-03-26T02:01:46.176Z,2.00
2023-03-26T02:03:53.019Z,1.92
2023-03-26T02:05:59.490Z,1.55
2023-03-26T02:08:09.743Z,1.80
2023-03-26T02:10:16.213Z,1.70
2023-03-26T02:12:20.801Z,1.80
2023-03-26T02:14:24.316Z,1.20
2023-03-26T02:16:30.927Z,2.10
2023-03-26T02:18:41.748Z,1.80
2023-03-26T02:20:45.318Z,1.90
2023-03-26T02:22:49.532Z,2.05
2023-03-26T02:24:53.129Z,1.60
2023-03-26T02:26:58.259Z,1.70
2023-03-26T02:29:05.399Z,1.85
2023-03-26T02:31:11.274Z,1.48
2023-03-26T02:33:17.381Z,1.35
2023-03-26T02:35:21.160Z,1.10
2023-03-26T02:37:24.786Z,0.95
2023-03-26T02:39:28.615Z,1.40
2023-03-26T02:41:32.287Z,1.15
2023-03-26T02:43:35.899Z,1.13
2023-03-26T02:45:39.805Z,1.50
2023-03-26T02:47:43.441Z,1.20
2023-03-26T02:49:48.524Z,1.30
2023-03-26T02:51:56.466Z,1.35
2023-03-26T02:54:01.244Z,1.75
2023-03-26T02:56:05.246Z,1.00
2023-03-26T02:58:08.861Z,1.40
2023-03-26T03:00:17.171Z,1.15
2023-03-26T03:02:23.235Z,1.00
2023-03-26T03:04:26.859Z,1.17
2023-03-26T03:06:32.859Z,0.90
2023-03-26T03:08:36.755Z,1.10
2023-03-26T03:10:40.353Z,1.15
2023-03-26T03:12:44.316Z,1.35
2023-03-26T03:14:48.340Z,1.30
2023-03-26T03:16:52.020Z,1.45
2023-03-26T03:18:58.181Z,1.05
2023-03-26T03:21:03.089Z,1.20
2023-03-26T03:23:08.241Z,1.00
2023-03-26T03:25:14.466Z,1.00
2023-03-26T03:27:19.641Z,1.40
2023-03-26T03:29:23.381Z,1.15
2023-03-26T03:31:27.538Z,1.10
2023-03-26T03:33:31.600Z,1.40
2023-03-26T03:35:35.330Z,1.15
2023-03-26T03:37:39.077Z,1.13
2023-03-26T03:39:44.193Z,0.90
2023-03-26T03:41:49.374Z,1.20
2023-03-26T03:43:52.966Z,1.20
2023-03-26T03:45:56.948Z,0.82
2023-03-26T03:48:03.242Z,1.15
2023-03-26T03:50:07.448Z,0.90
2023-03-26T03:52:11.118Z,0.90
2023-03-26T03:54:14.638Z,1.13
2023-03-26T03:56:24.269Z,0.98
2023-03-26T03:58:31.112Z,1.25
2023-03-26T04:00:34.822Z,1.10
2023-03-26T04:02:41.055Z,1.30
2023-03-26T04:04:46.458Z,1.10
2023-03-26T04:06:50.072Z,1.00
2023-03-26T04:08:53.964Z,1.20
2023-03-26T04:10:57.647Z,0.90
2023-03-26T04:13:06.295Z,0.80
2023-03-26T04:15:13.034Z,1.00
2023-03-26T04:17:16.852Z,0.70
2023-03-26T04:19:20.452Z,0.90
2023-03-26T04:21:24.399Z,0.95
2023-03-26T04:23:29.511Z,0.93
2023-03-26T04:25:33.380Z,1.02
2023-03-26T04:27:37.022Z,1.20
2023-03-26T04:29:44.357Z,1.80
2023-03-26T04:31:50.502Z,1.48
2023-03-26T04:33:56.189Z,1.35
2023-03-26T04:36:02.937Z,1.05
2023-03-26T04:38:07.099Z,1.30
2023-03-26T04:40:13.727Z,1.13
2023-03-26T04:42:20.279Z,1.83
2023-03-26T04:44:23.879Z,1.52
2023-03-26T04:46:33.650Z,1.13
2023-03-26T04:48:38.755Z,1.08
2023-03-26T04:50:43.141Z,1.50
2023-03-26T04:52:46.778Z,1.15
2023-03-26T04:54:50.419Z,1.67
2023-03-26T04:56:56.688Z,1.48
2023-03-26T04:59:02.184Z,1.30
2023-03-26T05:01:10.183Z,1.30
2023-03-26T05:03:16.115Z,1.52
2023-03-26T05:05:22.884Z,1.80
2023-03-26T05:07:26.528Z,1.35
2023-03-26T05:09:30.824Z,1.15
2023-03-26T05:11:34.700Z,1.00
2023-03-26T05:13:38.403Z,1.38
2023-03-26T05:15:42.173Z,1.00
2023-03-26T05:17:46.627Z,1.40
2023-03-26T05:19:52.092Z,1.30
2023-03-26T05:21:56.510Z,1.40
2023-03-26T05:24:00.173Z,1.33
2023-03-26T05:26:03.675Z,1.33
2023-03-26T05:28:07.281Z,1.10
2023-03-26T05:30:11.684Z,1.58
2023-03-26T05:32:15.694Z,1.35
2023-03-26T05:34:19.386Z,1.70
2023-03-26T05:36:28.488Z,1.30
2023-03-26T05:38:32.655Z,1.15
2023-03-26T05:40:36.235Z,1.40
2023-03-26T05:42:40.365Z,1.30
2023-03-26T05:44:44.335Z,1.23
2023-03-26T05:46:47.900Z,1.60
2023-03-26T05:48:52.148Z,2.17
2023-03-26T05:50:57.027Z,1.88
2023-03-26T05:53:02.315Z,2.10
2023-03-26T05:55:06.660Z,2.13
2023-03-26T05:57:10.177Z,1.88
2023-03-26T05:59:13.850Z,1.50
2023-03-26T06:01:18.963Z,2.00
2023-03-26T06:03:23.351Z,1.25
2023-03-26T06:05:27.146Z,1.40
2023-03-26T06:07:31.322Z,1.50
2023-03-26T06:09:37.845Z,1.30
2023-03-26T06:11:42.059Z,1.63
2023-03-26T06:13:46.224Z,1.00
2023-03-26T06:15:50.009Z,1.10
2023-03-26T06:17:53.778Z,1.48
2023-03-26T06:19:57.371Z,1.38
2023-03-26T06:22:01.182Z,1.40
2023-03-26T06:24:04.793Z,1.00
2023-03-26T06:26:12.567Z,1.83
2023-03-26T06:28:16.470Z,1.00
2023-03-26T06:30:22.657Z,1.30
2023-03-26T06:32:26.276Z,1.17
2023-03-26T06:34:31.122Z,1.17
2023-03-26T06:36:34.774Z,1.25
2023-03-26T06:38:38.298Z,1.75
2023-03-26T06:40:41.972Z,1.52
2023-03-26T06:43:07.052Z,1.20
2023-03-26T06:45:11.237Z,1.05
2023-03-26T06:47:14.886Z,0.88
2023-03-26T06:49:18.455Z,1.17
2023-03-26T06:51:24.743Z,1.15
2023-03-26T06:53:28.438Z,1.40
2023-03-26T06:55:32.563Z,0.88
2023-03-26T06:57:36.224Z,1.20
2023-03-26T06:59:41.686Z,0.90
2023-03-26T07:01:46.771Z,1.27
2023-03-26T07:03:52.471Z,2.00
2023-03-26T07:05:56.364Z,2.05
2023-03-26T07:08:00.129Z,1.83
2023-03-26T07:10:03.985Z,2.13
2023-03-26T07:12:07.975Z,2.40
2023-03-26T07:14:11.781Z,3.35
2023-03-26T07:16:16.998Z,2.58
2023-03-26T07:18:20.811Z,2.50
2023-03-26T07:20:24.551Z,2.65
2023-03-26T07:22:28.516Z,2.92
2023-03-26T07:24:32.544Z,2.15
2023-03-26T07:26:40.545Z,2.08
2023-03-26T07:29:05.108Z,1.80
2023-03-26T07:31:13.934Z,1.83
2023-03-26T07:33:23.189Z,1.55
2023-03-26T07:35:30.603Z,2.10
2023-03-26T07:37:40.906Z,1.83
2023-03-26T07:39:47.266Z,1.77
2023-03-26T07:41:53.012Z,2.00
2023-03-26T07:44:15.042Z,1.70
2023-03-26T07:46:19.534Z,2.10
2023-03-26T07:48:27.452Z,2.20
2023-03-26T07:50:31.267Z,2.20
2023-03-26T07:52:36.239Z,2.28
2023-03-26T07:54:40.208Z,2.35
2023-03-26T07:56:47.756Z,1.80
2023-03-26T07:59:02.465Z,2.20
2023-03-26T08:01:10.446Z,2.13
2023-03-26T08:03:19.612Z,1.90
2023-03-26T08:05:27.061Z,2.40
2023-03-26T08:07:34.443Z,2.30
2023-03-26T08:09:42.156Z,2.10
2023-03-26T08:11:49.968Z,2.20
2023-03-26T08:13:58.275Z,2.33
2023-03-26T08:16:06.751Z,2.07
2023-03-26T08:18:19.051Z,2.15
2023-03-26T08:20:31.142Z,1.80
2023-03-26T08:22:37.094Z,1.90
2023-03-26T08:24:43.460Z,2.10
2023-03-26T08:26:49.597Z,2.70
2023-03-26T08:29:00.188Z,6.23
2023-03-26T08:31:04.615Z,5.93
2023-03-26T08:33:16.845Z,4.47
2023-03-26T08:35:20.496Z,3.37
2023-03-26T08:37:26.607Z,3.00
2023-03-26T08:39:30.549Z,2.67
2023-03-26T08:41:52.882Z,2.10
2023-03-26T08:44:08.676Z,2.00
2023-03-26T08:46:27.498Z,2.73
2023-03-26T08:48:52.418Z,2.50
2023-03-26T08:51:23.254Z,2.13
2023-03-26T08:53:44.878Z,2.30
2023-03-26T08:55:54.167Z,2.13
2023-03-26T08:58:08.896Z,1.47
2023-03-26T09:00:34.492Z,1.70
2023-03-26T09:02:45.560Z,1.57
2023-03-26T09:05:19.970Z,1.37
2023-03-26T09:07:34.936Z,1.80
2023-03-26T09:09:59.289Z,1.40
2023-03-26T09:12:17.828Z,1.53
2023-03-26T09:14:31.024Z,1.43
2023-03-26T09:16:47.764Z,1.20
2023-03-26T09:19:09.118Z,1.00
2023-03-26T09:21:43.626Z,1.50
2023-03-26T09:24:05.402Z,1.60
2023-03-26T09:26:20.837Z,1.60
2023-03-26T09:28:51.461Z,1.40
2023-03-26T09:31:15.258Z,1.30
2023-03-26T09:33:46.071Z,1.27
2023-03-26T09:35:53.956Z,2.00
2023-03-26T09:38:00.059Z,1.50
2023-03-26T09:40:11.416Z,1.63
2023-03-26T09:42:19.291Z,1.83
2023-03-26T09:44:49.754Z,1.70
2023-03-26T09:47:05.013Z,1.30
2023-03-26T09:49:31.058Z,1.53
2023-03-26T09:51:40.481Z,0.90
2023-03-26T09:53:53.918Z,0.80
2023-03-26T09:56:01.418Z,1.20
2023-03-26T09:58:23.419Z,1.20
2023-03-26T10:00:31.362Z,0.67
2023-03-26T10:02:46.030Z,0.70
2023-03-26T10:05:02.274Z,0.70
2023-03-26T10:07:10.673Z,0.70
2023-03-26T10:09:22.334Z,0.83
2023-03-26T10:11:29.014Z,1.40
2023-03-26T10:13:34.991Z,1.23
2023-03-26T10:15:45.619Z,1.90
2023-03-26T10:17:57.278Z,1.47
2023-03-26T10:20:08.918Z,1.97
2023-03-26T10:22:22.444Z,1.60
2023-03-26T10:24:36.587Z,1.63
2023-03-26T10:27:08.891Z,1.77
2023-03-26T10:29:18.276Z,2.50
2023-03-26T10:31:36.246Z,1.80
2023-03-26T10:33:44.122Z,1.93
2023-03-26T10:35:53.781Z,1.80
2023-03-26T10:38:04.213Z,1.60
2023-03-26T10:40:22.681Z,2.53
2023-03-26T10:42:35.061Z,1.57
2023-03-26T10:44:59.681Z,2.10
2023-03-26T10:47:16.140Z,1.50
2023-03-26T10:49:42.779Z,2.13
2023-03-26T10:51:51.493Z,2.00
2023-03-26T10:53:56.785Z,2.20
2023-03-26T10:56:02.875Z,2.27
2023-03-26T10:58:13.104Z,1.97
2023-03-26T11:00:23.520Z,2.10
2023-03-26T11:02:30.460Z,2.23
2023-03-26T11:04:39.538Z,2.60
2023-03-26T11:06:49.495Z,2.57
2023-03-26T11:08:56.196Z,2.00
2023-03-26T11:11:03.565Z,1.80
2023-03-26T11:13:12.935Z,2.03
2023-03-26T11:15:22.768Z,2.43
2023-03-26T11:17:40.608Z,2.17
2023-03-26T11:19:53.204Z,1.60
2023-03-26T11:22:03.683Z,1.90
2023-03-26T11:24:18.095Z,1.70
2023-03-26T11:26:25.342Z,1.83
2023-03-26T11:28:33.634Z,2.40
2023-03-26T11:30:42.605Z,1.93
2023-03-26T11:32:47.582Z,1.70
2023-03-26T11:34:54.350Z,1.60
2023-03-26T11:37:01.606Z,1.30
2023-03-26T11:39:08.809Z,1.80
2023-03-26T11:41:22.487Z,1.37
2023-03-26T11:43:28.391Z,2.20
2023-03-26T11:45:37.653Z,1.27
2023-03-26T11:47:44.748Z,1.57
2023-03-26T11:49:50.348Z,1.93
2023-03-26T11:51:54.872Z,2.23
2023-03-26T11:54:00.208Z,1.80
2023-03-26T11:56:05.660Z,1.90
2023-03-26T11:58:24.551Z,1.90
2023-03-26T12:00:29.027Z,1.97
2023-03-26T12:02:34.959Z,2.20
2023-03-26T12:04:40.858Z,1.77
2023-03-26T12:06:52.664Z,1.97
2023-03-26T12:08:57.198Z,2.07
2023-03-26T12:11:04.879Z,2.50
2023-03-26T12:13:24.724Z,2.30
2023-03-26T12:15:29.414Z,2.33
2023-03-26T12:17:34.326Z,2.60
2023-03-26T12:19:39.717Z,2.43
2023-03-26T12:21:47.634Z,2.57
2023-03-26T12:23:57.631Z,2.63
2023-03-26T12:26:13.357Z,2.73
2023-03-26T12:28:20.399Z,3.30
2023-03-26T12:30:25.551Z,4.13
2023-03-26T12:34:41.634Z,3.33
2023-03-26T12:36:50.441Z,3.90
2023-03-26T12:39:42.840Z,3.60
2023-03-26T12:43:40.371Z,3.37
2023-03-26T12:44:56.160Z,3.30
2023-03-26T12:47:56.942Z,3.80
2023-03-26T12:48:48.252Z,3.23
2023-03-26T12:50:59.374Z,3.93
2023-03-26T12:53:09.099Z,3.30
2023-03-26T12:55:16.677Z,3.00
2023-03-26T12:57:24.833Z,3.10
2023-03-26T12:59:41.833Z,3.60
2023-03-26T13:01:52.862Z,3.40
2023-03-26T13:04:12.127Z,3.50
2023-03-26T13:06:27.853Z,4.10
2023-03-26T13:08:49.633Z,3.10
2023-03-26T13:10:55.140Z,4.20
2023-03-26T13:13:07.531Z,3.50
2023-03-26T13:15:19.148Z,3.37
2023-03-26T13:17:25.589Z,3.20
2023-03-26T13:19:32.730Z,3.57
2023-03-26T13:21:43.727Z,3.07
2023-03-26T13:23:50.817Z,3.10
2023-03-26T13:25:56.856Z,3.40
2023-03-26T13:28:06.858Z,2.90
2023-03-26T13:30:17.681Z,3.73
2023-03-26T13:32:25.487Z,3.20
2023-03-26T13:34:33.480Z,3.13
2023-03-26T13:36:42.647Z,3.83
2023-03-26T13:38:58.640Z,3.03
2023-03-26T13:41:06.124Z,2.67
2023-03-26T13:43:19.660Z,3.33
2023-03-26T13:45:28.990Z,3.80
2023-03-26T13:47:35.368Z,3.53
2023-03-26T13:49:40.294Z,3.10
2023-03-26T13:51:46.220Z,3.30
2023-03-26T13:53:52.782Z,3.40
2023-03-26T13:55:57.763Z,2.87
2023-03-26T13:58:05.268Z,2.73
2023-03-26T14:00:13.127Z,2.70
2023-03-26T14:02:20.191Z,3.80
2023-03-26T14:04:25.773Z,2.67
2023-03-26T14:06:42.342Z,2.70
2023-03-26T14:08:49.218Z,3.43
2023-03-26T14:10:54.850Z,2.67
2023-03-26T14:12:59.414Z,2.13
2023-03-26T14:15:04.504Z,2.80
2023-03-26T14:17:14.883Z,3.30
2023-03-26T14:19:39.256Z,2.37
2023-03-26T14:21:53.108Z,3.63
2023-03-26T14:24:14.320Z,2.37
2023-03-26T14:26:25.317Z,3.90
2023-03-26T14:28:44.442Z,3.80
2023-03-26T14:31:04.068Z,2.40
2023-03-26T14:33:27.332Z,3.07
2023-03-26T14:35:35.414Z,3.20
2023-03-26T14:37:51.008Z,2.93
2023-03-26T14:40:18.480Z,2.80
2023-03-26T14:42:26.891Z,3.30
2023-03-26T14:44:47.678Z,2.80
2023-03-26T14:47:07.216Z,2.60
2023-03-26T14:49:28.514Z,2.93
2023-03-26T14:51:38.422Z,2.53
2023-03-26T14:53:44.278Z,4.50
2023-03-26T14:55:53.842Z,3.40
2023-03-26T14:58:10.805Z,2.97
2023-03-26T15:00:29.161Z,2.90
2023-03-26T15:03:00.813Z,2.83
2023-03-26T15:05:32.998Z,2.80
2023-03-26T15:08:03.488Z,3.10
2023-03-26T15:10:24.630Z,3.80
2023-03-26T15:12:36.007Z,2.93
2023-03-26T15:14:54.407Z,3.13
2023-03-26T15:17:12.857Z,3.80
2023-03-26T15:19:34.752Z,4.80
2023-03-26T15:24:25.098Z,3.50
2023-03-26T15:26:46.890Z,2.90
2023-03-26T15:29:17.218Z,2.60
2023-03-26T15:31:37.158Z,2.33
2023-03-26T15:33:56.992Z,2.13
2023-03-26T15:36:10.633Z,2.93
2023-03-26T15:38:29.552Z,3.97
2023-03-26T15:40:43.177Z,3.60
2023-03-26T15:42:55.794Z,4.30
2023-03-26T15:45:06.036Z,3.70
2023-03-26T15:47:33.821Z,3.50
2023-03-26T15:49:41.227Z,2.30
2023-03-26T15:51:51.183Z,3.23
2023-03-26T15:53:56.818Z,2.70
2023-03-26T15:56:17.799Z,2.10
2023-03-26T15:58:27.224Z,6.00
2023-03-26T16:00:34.062Z,4.83
2023-03-26T16:02:44.121Z,3.97
2023-03-26T16:04:51.770Z,2.60
2023-03-26T16:06:59.309Z,2.60
2023-03-26T16:09:20.154Z,4.93
2023-03-26T16:11:42.148Z,2.60
2023-03-26T16:13:51.477Z,2.70
2023-03-26T16:15:58.232Z,2.73
2023-03-26T16:18:32.138Z,3.50
2023-03-26T16:20:36.676Z,2.27
2023-03-26T16:22:56.056Z,3.30
2023-03-26T16:25:27.988Z,2.67
2023-03-26T16:27:34.191Z,3.13
2023-03-26T16:29:59.719Z,3.27
2023-03-26T16:32:16.202Z,3.80
2023-03-26T16:34:38.811Z,2.93
2023-03-26T16:36:45.282Z,2.90
2023-03-26T16:38:55.652Z,2.60
2023-03-26T16:41:01.985Z,3.03
2023-03-26T16:43:16.977Z,3.27
2023-03-26T16:45:24.573Z,2.83
2023-03-26T16:47:32.395Z,2.50
2023-03-26T16:49:46.694Z,3.90
2023-03-26T16:52:17.935Z,5.30
2023-03-26T16:54:26.451Z,5.27
2023-03-26T16:56:35.309Z,7.13
2023-03-26T16:58:48.082Z,4.67
2023-03-26T17:00:57.527Z,4.10
2023-03-26T17:03:14.019Z,3.63
2023-03-26T17:05:21.310Z,3.50
2023-03-26T17:07:26.966Z,3.60
2023-03-26T17:09:36.190Z,3.03
2023-03-26T17:11:44.282Z,2.43
2023-03-26T17:13:50.966Z,2.00
2023-03-26T17:16:01.838Z,2.50
2023-03-26T17:18:15.463Z,2.80
2023-03-26T17:20:32.987Z,2.20
2023-03-26T17:22:39.946Z,2.30
2023-03-26T17:24:47.950Z,2.77
2023-03-26T17:26:55.052Z,2.10
2023-03-26T17:29:08.245Z,2.40
2023-03-26T17:31:20.661Z,1.83
2023-03-26T17:33:29.878Z,2.10
2023-03-26T17:35:38.020Z,1.87
2023-03-26T17:37:45.896Z,2.47
2023-03-26T17:40:12.555Z,2.70
2023-03-26T17:42:21.134Z,2.40
2023-03-26T17:44:43.190Z,2.43
2023-03-26T17:46:48.810Z,3.07
2023-03-26T17:48:58.759Z,2.13
2023-03-26T17:51:04.386Z,2.77
2023-03-26T17:53:14.488Z,2.70
2023-03-26T17:55:20.011Z,2.93
2023-03-26T17:57:25.334Z,2.40
2023-03-26T17:59:29.441Z,3.13
2023-03-26T18:01:36.575Z,2.77
2023-03-26T18:03:45.200Z,2.80
2023-03-26T18:05:49.355Z,3.60
2023-03-26T18:08:08.032Z,3.17
2023-03-26T18:10:18.455Z,2.57
2023-03-26T18:12:36.964Z,2.23
2023-03-26T18:14:55.897Z,2.60
2023-03-26T18:17:01.219Z,2.17
2023-03-26T18:19:17.555Z,3.03
2023-03-26T18:21:23.650Z,3.87
2023-03-26T18:23:28.479Z,3.80
2023-03-26T18:25:34.196Z,6.43
2023-03-26T18:27:39.303Z,8.43
2023-03-26T18:29:46.005Z,6.23
2023-03-26T18:31:51.950Z,4.40
2023-03-26T18:33:59.017Z,4.70
2023-03-26T18:36:04.962Z,4.50
2023-03-26T18:38:08.829Z,4.60
2023-03-26T18:40:14.552Z,3.17
2023-03-26T18:42:24.484Z,1.60
2023-03-26T18:44:29.533Z,2.00
2023-03-26T18:46:34.583Z,2.20
2023-03-26T18:48:38.306Z,1.90
2023-03-26T18:50:42.970Z,2.77
2023-03-26T18:52:47.922Z,2.03
2023-03-26T18:54:53.048Z,2.40
2023-03-26T18:56:58.967Z,2.00
2023-03-26T18:59:03.718Z,2.38
2023-03-26T19:01:20.162Z,2.95
2023-03-26T19:03:29.190Z,3.00
2023-03-26T19:05:34.402Z,3.03
2023-03-26T19:07:39.205Z,1.67
2023-03-26T19:09:44.651Z,2.10
2023-03-26T19:11:50.372Z,0.95
2023-03-26T19:14:04.114Z,1.13
2023-03-26T19:16:09.648Z,0.93
2023-03-26T19:18:18.647Z,1.33
2023-03-26T19:20:24.879Z,0.88
2023-03-26T19:22:28.731Z,0.95
2023-03-26T19:24:32.762Z,0.80
2023-03-26T19:26:37.999Z,0.98
2023-03-26T19:28:42.859Z,1.00
2023-03-26T19:30:46.443Z,0.85
2023-03-26T19:32:55.084Z,0.95
2023-03-26T19:35:21.788Z,0.85
2023-03-26T19:37:26.517Z,0.80
2023-03-26T19:39:38.027Z,0.85
2023-03-26T19:41:44.229Z,1.60
2023-03-26T19:43:50.324Z,2.03
2023-03-26T19:46:00.142Z,1.23
2023-03-26T19:48:19.371Z,1.15
2023-03-26T19:50:43.899Z,0.82
2023-03-26T19:52:47.744Z,1.00
2023-03-26T19:54:59.988Z,0.90
2023-03-26T19:57:07.106Z,0.80
2023-03-26T19:59:10.768Z,0.65
2023-03-26T20:01:19.154Z,1.77
2023-03-26T20:03:27.814Z,0.70
2023-03-26T20:05:34.394Z,1.10
2023-03-26T20:07:39.485Z,1.13
2023-03-26T20:09:44.336Z,1.20
2023-03-26T20:11:47.903Z,0.90
2023-03-26T20:13:53.890Z,0.82
2023-03-26T20:16:04.999Z,0.88
2023-03-26T20:18:09.879Z,1.00
2023-03-26T20:20:14.277Z,1.20
2023-03-26T20:22:20.154Z,0.80
2023-03-26T20:24:24.859Z,1.27
2023-03-26T20:26:28.549Z,1.20
2023-03-26T20:28:38.736Z,1.00
2023-03-26T20:30:54.663Z,1.35
2023-03-26T20:33:12.225Z,0.77
2023-03-26T20:35:19.364Z,0.75
2023-03-26T20:37:40.401Z,1.13
2023-03-26T20:39:43.991Z,1.00
2023-03-26T20:41:48.961Z,0.80
2023-03-26T20:43:52.773Z,1.10
2023-03-26T20:45:58.818Z,0.60
2023-03-26T20:48:03.118Z,0.68
2023-03-26T20:50:07.318Z,1.05
2023-03-26T20:52:13.644Z,0.40
2023-03-26T20:54:18.870Z,0.50
2023-03-26T20:56:22.897Z,0.50
2023-03-26T20:58:31.119Z,0.95
2023-03-26T21:00:37.299Z,0.50
2023-03-26T21:02:43.439Z,0.50
2023-03-26T21:04:48.893Z,0.90
2023-03-26T21:06:57.636Z,0.88
2023-03-26T21:09:07.664Z,1.35
2023-03-26T21:11:26.463Z,1.15
2023-03-26T21:13:35.475Z,1.05
2023-03-26T21:15:39.748Z,1.00
2023-03-26T21:17:45.413Z,0.68
2023-03-26T21:19:49.311Z,1.33
2023-03-26T21:21:57.663Z,0.85
2023-03-26T21:24:05.185Z,0.75
2023-03-26T21:26:12.313Z,0.50
2023-03-26T21:28:29.058Z,0.70
2023-03-26T21:30:40.094Z,0.90
2023-03-26T21:32:46.392Z,0.80
2023-03-26T21:34:58.758Z,0.95
2023-03-26T21:37:03.577Z,0.80
2023-03-26T21:39:07.552Z,0.70
2023-03-26T21:41:14.598Z,0.60
2023-03-26T21:43:19.115Z,0.77
2023-03-26T21:45:23.693Z,1.10
2023-03-26T21:47:27.768Z,0.93
2023-03-26T21:49:33.190Z,0.85
2023-03-26T21:51:37.992Z,0.88
2023-03-26T21:53:42.639Z,1.15
2023-03-26T21:55:53.257Z,1.00
2023-03-26T21:58:01.748Z,0.68
2023-03-26T22:00:13.052Z,0.63
2023-03-26T22:02:21.704Z,0.70
2023-03-26T22:04:28.798Z,0.73
2023-03-26T22:06:37.060Z,0.85
2023-03-26T22:08:42.154Z,1.15
2023-03-26T22:10:45.884Z,0.98
2023-03-26T22:12:49.528Z,0.98
2023-03-26T22:14:53.528Z,1.20
2023-03-26T22:16:57.123Z,1.00
2023-03-26T22:19:00.767Z,1.80
2023-03-26T22:21:04.772Z,1.10
2023-03-26T22:23:09.725Z,1.20
2023-03-26T22:25:14.616Z,1.15
2023-03-26T22:27:18.194Z,1.48
2023-03-26T22:29:22.899Z,0.77
2023-03-26T22:31:26.806Z,1.00
2023-03-26T22:33:30.664Z,1.38
2023-03-26T22:35:34.266Z,1.83
2023-03-26T22:37:38.416Z,1.35
2023-03-26T22:39:43.654Z,1.33
2023-03-26T22:41:47.288Z,1.10
2023-03-26T22:43:52.261Z,1.48
2023-03-26T22:45:55.832Z,1.50
2023-03-26T22:48:03.179Z,0.80
2023-03-26T22:50:09.032Z,0.90
2023-03-26T22:52:12.774Z,1.02
2023-03-26T22:54:16.396Z,1.63
2023-03-26T22:56:21.442Z,1.05
2023-03-26T22:58:25.793Z,0.67
2023-03-26T23:00:29.504Z,1.00
2023-03-26T23:02:33.189Z,1.42
2023-03-26T23:04:37.752Z,1.00
2023-03-26T23:06:41.559Z,1.27
2023-03-26T23:08:45.415Z,0.90
2023-03-26T23:10:49.169Z,1.15
2023-03-26T23:12:54.252Z,1.00
2023-03-26T23:14:58.354Z,1.00
2023-03-26T23:17:02.102Z,0.80
2023-03-26T23:19:05.971Z,0.98
2023-03-26T23:21:14.487Z,0.80
2023-03-26T23:23:18.664Z,0.80
2023-03-26T23:25:22.260Z,0.70
2023-03-26T23:27:25.775Z,0.90
2023-03-26T23:29:32.015Z,1.10
2023-03-26T23:31:35.540Z,1.00
2023-03-26T23:33:46.560Z,0.98
2023-03-26T23:35:51.705Z,1.00
2023-03-26T23:37:55.922Z,1.02
2023-03-26T23:40:00.737Z,1.02
2023-03-26T23:42:04.300Z,1.02
2023-03-26T23:44:08.187Z,0.85
2023-03-26T23:46:13.830Z,1.00
2023-03-26T23:48:18.311Z,1.30
2023-03-26T23:50:23.602Z,1.30
2023-03-26T23:52:27.512Z,1.10
2023-03-26T23:54:31.199Z,1.00
2023-03-26T23:56:35.212Z,1.30
2023-03-26T23:58:38.839Z,0.90
